Time;durP1;ratioP1;P1;durP2;ratioP2;P2;SDS_P1;SDS_P2;PMS_P1;PMS_P2;Temp;Humidity;BMP_temperature;BMP_pressure;BME280_temperature;BME280_humidity;BME280_pressure;Samples;Min_cycle;Max_cycle;Signal;HPM_P1;HPM_P2
2022/10/23 00:02:34;;;;;;;6.83;6.43;;;13.70;1.00;;;;;;6385718;27;20238;-54
2022/10/23 00:05:40;;;;;;;7.70;7.00;;;13.70;1.00;;;;;;6386111;27;20242;-53
2022/10/23 00:08:45;;;;;;;7.73;7.10;;;13.70;1.00;;;;;;6381924;27;20603;-54
2022/10/23 00:11:50;;;;;;;8.67;7.80;;;13.70;1.00;;;;;;6386042;27;20238;-53
2022/10/23 00:14:52;;;;;;;7.53;7.07;;;13.60;1.00;;;;;;6379068;27;20227;-54
2022/10/23 00:17:58;;;;;;;7.50;6.90;;;13.60;1.00;;;;;;6377766;27;20235;-54
2022/10/23 00:21:01;;;;;;;9.47;8.17;;;13.50;1.00;;;;;;6377430;27;20602;-53
2022/10/23 00:24:07;;;;;;;10.60;8.57;;;13.60;1.00;;;;;;6385482;27;20245;-54
2022/10/23 00:27:11;;;;;;;10.77;8.30;;;13.60;1.00;;;;;;6384555;27;20235;-57
2022/10/23 00:30:14;;;;;;;9.23;8.33;;;13.50;1.00;;;;;;6386467;27;20238;-53
2022/10/23 00:33:29;;;;;;;9.33;8.43;;;13.50;1.00;;;;;;6385495;27;20237;-54
2022/10/23 00:36:32;;;;;;;8.73;8.00;;;13.50;1.00;;;;;;6365659;27;20700;-53
2022/10/23 00:39:36;;;;;;;8.80;8.00;;;13.50;1.00;;;;;;6384087;27;20230;-54
2022/10/23 00:42:39;;;;;;;11.17;7.90;;;13.50;1.00;;;;;;6385919;27;20292;-58
2022/10/23 00:45:42;;;;;;;9.27;8.37;;;13.50;1.00;;;;;;6385307;27;20239;-54
2022/10/23 00:48:45;;;;;;;14.33;8.50;;;13.50;1.00;;;;;;6369784;27;20609;-54
2022/10/23 00:51:51;;;;;;;8.17;7.60;;;13.50;1.00;;;;;;6364920;27;20707;-54
2022/10/23 00:54:56;;;;;;;9.53;8.10;;;13.50;1.00;;;;;;6384747;27;20233;-53
2022/10/23 00:57:59;;;;;;;8.10;7.47;;;13.50;1.00;;;;;;6375801;27;20629;-54
2022/10/23 01:01:17;;;;;;;8.93;8.03;;;13.50;1.00;;;;;;6372282;27;20396;-53
2022/10/23 01:04:21;;;;;;;9.57;8.70;;;13.50;1.00;;;;;;6381745;27;20238;-55
2022/10/23 01:07:29;;;;;;;10.03;9.13;;;13.50;1.00;;;;;;6366822;27;20400;-55
2022/10/23 01:10:40;;;;;;;9.77;7.90;;;13.50;1.00;;;;;;6385058;27;20241;-54
2022/10/23 01:13:51;;;;;;;8.50;7.70;;;13.50;1.00;;;;;;6368121;27;20246;-54
2022/10/23 01:17:05;;;;;;;8.80;7.27;;;13.50;1.00;;;;;;6362376;27;20247;-54
2022/10/23 01:20:22;;;;;;;7.63;7.03;;;13.50;1.00;;;;;;6363972;27;20621;-54
2022/10/23 01:23:43;;;;;;;9.03;8.20;;;13.50;1.00;;;;;;6362402;27;20231;-54
2022/10/23 01:27:14;;;;;;;7.93;7.17;;;13.50;1.00;;;;;;6369245;27;20239;-54
2022/10/23 01:30:18;;;;;;;8.17;7.57;;;13.40;1.00;;;;;;6380749;27;20329;-53
2022/10/23 01:33:27;;;;;;;8.10;7.47;;;13.40;1.00;;;;;;6388433;27;20241;-53
2022/10/23 01:36:32;;;;;;;9.73;7.37;;;13.40;1.00;;;;;;6362884;27;20582;-53
2022/10/23 01:39:38;;;;;;;9.50;8.53;;;13.40;1.00;;;;;;6388705;27;20353;-61
2022/10/23 01:42:46;;;;;;;8.90;8.00;;;13.40;1.00;;;;;;6378218;27;20238;-57
2022/10/23 01:45:54;;;;;;;9.13;8.33;;;13.40;1.00;;;;;;6386623;27;20237;-53
2022/10/23 01:48:58;;;;;;;7.97;7.33;;;13.40;1.00;;;;;;6388877;27;20231;-54
2022/10/23 01:52:03;;;;;;;8.27;7.43;;;13.40;1.00;;;;;;6382660;27;20378;-53
2022/10/23 01:55:10;;;;;;;8.50;7.60;;;13.30;1.00;;;;;;6352054;27;20227;-54
2022/10/23 01:58:15;;;;;;;11.23;8.30;;;13.30;1.00;;;;;;6380087;27;20234;-57
2022/10/23 02:01:22;;;;;;;8.87;8.07;;;13.30;1.00;;;;;;6385903;27;20407;-53
2022/10/23 02:04:30;;;;;;;8.37;7.73;;;13.30;1.00;;;;;;6362361;27;20313;-53
2022/10/23 02:07:33;;;;;;;8.93;8.10;;;13.30;1.00;;;;;;6366982;27;20226;-55
2022/10/23 02:10:44;;;;;;;8.67;7.77;;;13.30;1.00;;;;;;6386895;27;20241;-54
2022/10/23 02:14:00;;;;;;;8.57;7.80;;;13.20;1.00;;;;;;6386870;27;20238;-53
2022/10/23 02:17:15;;;;;;;8.87;7.90;;;13.20;1.00;;;;;;6378176;27;20230;-54
2022/10/23 02:20:24;;;;;;;7.03;6.63;;;13.20;1.00;;;;;;6364198;27;20239;-53
2022/10/23 02:23:32;;;;;;;8.87;8.10;;;13.20;1.00;;;;;;6362770;27;20228;-51
2022/10/23 02:26:38;;;;;;;8.97;8.20;;;13.20;1.00;;;;;;6364212;27;20242;-54
2022/10/23 02:29:44;;;;;;;11.70;8.37;;;13.20;1.00;;;;;;6378218;27;20238;-53
2022/10/23 02:32:50;;;;;;;9.57;8.57;;;13.20;1.00;;;;;;6367096;27;20331;-54
2022/10/23 02:35:53;;;;;;;10.57;8.43;;;13.30;1.00;;;;;;6376413;27;20742;-54
2022/10/23 02:38:56;;;;;;;9.33;8.33;;;13.20;1.00;;;;;;6384261;27;20234;-54
2022/10/23 02:42:07;;;;;;;7.93;7.43;;;13.20;1.00;;;;;;6387618;27;20243;-54
2022/10/23 02:45:17;;;;;;;7.30;6.73;;;13.20;1.00;;;;;;6387624;27;20262;-54
2022/10/23 02:48:26;;;;;;;8.83;7.97;;;13.20;1.00;;;;;;6372708;27;20614;-53
2022/10/23 02:51:38;;;;;;;8.43;7.63;;;13.20;1.00;;;;;;6360369;27;20251;-54
2022/10/23 02:55:07;;;;;;;8.00;7.33;;;13.10;1.00;;;;;;6384572;27;20233;-53
2022/10/23 02:58:19;;;;;;;7.27;6.87;;;13.10;1.00;;;;;;6378710;27;20230;-55
2022/10/23 03:01:27;;;;;;;7.00;6.60;;;13.00;1.00;;;;;;6387299;27;20257;-56
2022/10/23 03:04:32;;;;;;;6.93;6.43;;;13.00;1.00;;;;;;6387753;27;20231;-53
2022/10/23 03:07:36;;;;;;;8.00;7.40;;;13.00;1.00;;;;;;6378797;27;20796;-54
2022/10/23 03:10:39;;;;;;;6.70;6.40;;;12.90;1.00;;;;;;6387430;27;20392;-55
2022/10/23 03:13:42;;;;;;;6.87;6.37;;;12.90;1.00;;;;;;6388052;27;20757;-54
2022/10/23 03:16:45;;;;;;;8.27;7.43;;;12.80;1.00;;;;;;6364981;27;20414;-53
2022/10/23 03:19:49;;;;;;;7.03;6.70;;;12.80;1.00;;;;;;6364827;27;20489;-54
2022/10/23 03:22:52;;;;;;;7.93;7.30;;;12.80;1.00;;;;;;6368082;27;20235;-53
2022/10/23 03:25:55;;;;;;;6.70;6.23;;;12.80;1.00;;;;;;6388894;27;20230;-54
2022/10/23 03:28:58;;;;;;;7.30;6.80;;;12.70;1.00;;;;;;6387286;27;20982;-55
2022/10/23 03:32:01;;;;;;;8.10;7.50;;;12.70;1.00;;;;;;6373936;27;20238;-53
2022/10/23 03:35:11;;;;;;;7.23;6.73;;;12.70;1.00;;;;;;6381853;27;20314;-54
2022/10/23 03:38:14;;;;;;;7.03;6.63;;;12.60;1.00;;;;;;6385385;27;20758;-55
2022/10/23 03:41:17;;;;;;;7.30;6.80;;;12.60;1.00;;;;;;6377299;27;20267;-54
2022/10/23 03:44:20;;;;;;;9.07;8.37;;;12.60;1.00;;;;;;6386367;27;20245;-54
2022/10/23 03:47:23;;;;;;;7.90;7.40;;;12.50;1.00;;;;;;6385819;27;20604;-53
2022/10/23 03:50:27;;;;;;;7.30;6.90;;;12.50;1.00;;;;;;6381053;27;20722;-57
2022/10/23 03:53:30;;;;;;;7.13;6.63;;;12.40;1.00;;;;;;6386093;27;20245;-54
2022/10/23 03:56:33;;;;;;;6.70;6.40;;;12.40;1.00;;;;;;6355585;27;20228;-53
2022/10/23 03:59:36;;;;;;;7.73;7.23;;;12.30;1.00;;;;;;6385826;27;20218;-54
2022/10/23 04:02:39;;;;;;;9.07;8.27;;;12.30;1.00;;;;;;6385100;27;20238;-55
2022/10/23 04:05:43;;;;;;;7.80;7.30;;;12.30;1.00;;;;;;6381995;27;20283;-54
2022/10/23 04:08:46;;;;;;;8.50;7.90;;;12.20;1.00;;;;;;6382933;27;20231;-55
2022/10/23 04:11:49;;;;;;;9.33;8.53;;;12.20;1.00;;;;;;6386297;27;20257;-57
2022/10/23 04:14:52;;;;;;;8.73;7.93;;;12.10;1.00;;;;;;6379079;27;20244;-54
2022/10/23 04:17:54;;;;;;;8.10;7.50;;;12.10;1.00;;;;;;6380370;27;20234;-53
2022/10/23 04:20:59;;;;;;;7.73;7.23;;;12.00;1.00;;;;;;6384495;27;20733;-55
2022/10/23 04:24:02;;;;;;;8.67;7.90;;;12.00;1.00;;;;;;6385528;27;20242;-54
2022/10/23 04:27:04;;;;;;;8.20;7.60;;;12.00;1.00;;;;;;6384087;27;20261;-55
2022/10/23 04:30:09;;;;;;;8.10;7.50;;;11.90;1.00;;;;;;6383742;27;20245;-54
2022/10/23 04:33:11;;;;;;;8.60;8.00;;;11.90;1.00;;;;;;6384715;27;20246;-55
2022/10/23 04:36:16;;;;;;;8.03;7.47;;;11.80;1.00;;;;;;6383248;27;20237;-54
2022/10/23 04:39:19;;;;;;;9.17;8.33;;;11.80;1.00;;;;;;6384218;27;20711;-53
2022/10/23 04:42:22;;;;;;;8.17;7.63;;;11.70;1.00;;;;;;6384836;27;20227;-55
2022/10/23 04:45:25;;;;;;;8.23;7.73;;;11.60;1.00;;;;;;6385323;27;20388;-53
2022/10/23 04:48:28;;;;;;;8.47;7.80;;;11.60;1.00;;;;;;6381498;27;20253;-53
2022/10/23 04:51:32;;;;;;;11.73;10.57;;;11.60;1.00;;;;;;6387581;27;20231;-58
2022/10/23 04:54:37;;;;;;;11.00;10.13;;;11.60;1.00;;;;;;6389531;27;20241;-54
2022/10/23 04:57:39;;;;;;;12.20;11.07;;;11.50;1.00;;;;;;6385263;27;20234;-54
2022/10/23 05:00:42;;;;;;;10.77;9.87;;;11.50;1.00;;;;;;6391828;27;20384;-53
2022/10/23 05:03:45;;;;;;;11.97;10.87;;;11.50;1.00;;;;;;6390557;27;20241;-54
2022/10/23 05:06:49;;;;;;;12.10;10.97;;;11.50;1.00;;;;;;6380537;27;20306;-54
2022/10/23 05:09:52;;;;;;;10.77;9.87;;;11.50;1.00;;;;;;6389246;27;20599;-53
2022/10/23 05:12:55;;;;;;;12.17;10.97;;;11.40;1.00;;;;;;6389004;27;20255;-53
2022/10/23 05:15:59;;;;;;;10.83;10.00;;;11.40;1.00;;;;;;6387000;27;20491;-54
2022/10/23 05:19:03;;;;;;;12.23;11.33;;;11.40;1.00;;;;;;6389543;27;20229;-53
2022/10/23 05:22:08;;;;;;;10.03;9.17;;;11.30;1.00;;;;;;6380157;27;20605;-54
2022/10/23 05:25:11;;;;;;;10.87;9.87;;;11.30;1.00;;;;;;6380246;27;20231;-52
2022/10/23 05:28:14;;;;;;;11.87;10.77;;;11.30;1.00;;;;;;6388931;27;20238;-53
2022/10/23 05:31:18;;;;;;;11.40;10.40;;;11.30;1.00;;;;;;6385456;27;20242;-54
2022/10/23 05:34:25;;;;;;;9.40;8.70;;;11.30;1.00;;;;;;6389821;27;20226;-54
2022/10/23 05:37:31;;;;;;;10.27;9.33;;;11.30;1.00;;;;;;6388718;27;20223;-54
2022/10/23 05:40:34;;;;;;;9.00;8.33;;;11.30;1.00;;;;;;6387759;27;20230;-54
2022/10/23 05:43:37;;;;;;;9.83;9.10;;;11.30;1.00;;;;;;6389307;27;20626;-54
2022/10/23 05:46:41;;;;;;;11.77;10.77;;;11.30;1.00;;;;;;6388456;27;20234;-54
2022/10/23 05:49:44;;;;;;;10.70;9.60;;;11.30;1.00;;;;;;6385849;27;20233;-52
2022/10/23 05:52:49;;;;;;;9.20;8.57;;;11.30;1.00;;;;;;6387382;27;20257;-53
2022/10/23 05:55:52;;;;;;;10.67;9.77;;;11.30;1.00;;;;;;6389262;27;20245;-54
2022/10/23 05:58:57;;;;;;;9.30;8.60;;;11.20;1.00;;;;;;6383616;27;20227;-54
2022/10/23 06:02:01;;;;;;;10.10;9.20;;;11.30;1.00;;;;;;6387248;27;20230;-54
2022/10/23 06:05:04;;;;;;;10.27;9.30;;;11.30;1.00;;;;;;6387740;27;20231;-53
2022/10/23 06:08:08;;;;;;;9.17;8.47;;;11.30;1.00;;;;;;6387597;27;20230;-53
2022/10/23 06:11:13;;;;;;;9.67;8.87;;;11.30;1.00;;;;;;6388985;27;20472;-54
2022/10/23 06:14:16;;;;;;;9.87;9.13;;;11.30;1.00;;;;;;6382609;27;20239;-54
2022/10/23 06:17:19;;;;;;;10.50;9.57;;;11.30;1.00;;;;;;6387767;27;20599;-53
2022/10/23 06:20:22;;;;;;;9.20;8.50;;;11.30;1.00;;;;;;6388715;27;20252;-53
2022/10/23 06:23:32;;;;;;;9.40;8.70;;;11.30;1.00;;;;;;6386688;27;20704;-54
2022/10/23 06:26:35;;;;;;;8.53;8.03;;;11.30;1.00;;;;;;6387426;27;20227;-55
2022/10/23 06:29:38;;;;;;;8.53;7.97;;;11.30;1.00;;;;;;6388381;27;20313;-56
2022/10/23 06:32:41;;;;;;;9.50;8.70;;;11.30;1.00;;;;;;6384882;27;20732;-54
2022/10/23 06:35:45;;;;;;;10.07;9.17;;;11.30;1.00;;;;;;6386010;27;20227;-53
2022/10/23 06:38:50;;;;;;;10.50;9.70;;;11.30;1.00;;;;;;6387745;27;20246;-54
2022/10/23 06:41:53;;;;;;;10.00;9.20;;;11.40;1.00;;;;;;6387691;27;20351;-54
2022/10/23 06:44:57;;;;;;;9.90;9.23;;;11.40;1.00;;;;;;6387927;27;20234;-53
2022/10/23 06:48:02;;;;;;;9.70;9.03;;;11.40;1.00;;;;;;6381760;27;20233;-53
2022/10/23 06:51:08;;;;;;;9.90;9.17;;;11.50;1.00;;;;;;6376468;27;20661;-57
2022/10/23 06:54:15;;;;;;;11.80;10.80;;;11.60;1.00;;;;;;6382000;27;20230;-53
2022/10/23 06:57:18;;;;;;;12.37;11.07;;;11.70;1.00;;;;;;6385550;27;20899;-53
2022/10/23 07:00:21;;;;;;;12.47;11.50;;;11.80;1.00;;;;;;6384738;27;20238;-53
2022/10/23 07:03:24;;;;;;;13.10;11.70;;;11.90;1.00;;;;;;6380011;27;20246;-54
2022/10/23 07:06:27;;;;;;;15.00;13.20;;;11.90;1.00;;;;;;6385598;27;20249;-55
2022/10/23 07:09:31;;;;;;;13.53;12.27;;;12.00;1.00;;;;;;6374164;27;20234;-56
2022/10/23 07:12:34;;;;;;;12.90;11.90;;;12.00;1.00;;;;;;6386731;27;20614;-54
2022/10/23 07:15:37;;;;;;;14.80;13.03;;;12.10;1.00;;;;;;6387111;27;20573;-54
2022/10/23 07:18:40;;;;;;;14.53;12.83;;;12.10;1.00;;;;;;6383327;27;20239;-54
2022/10/23 07:21:43;;;;;;;14.67;13.07;;;12.30;1.00;;;;;;6386849;27;20237;-53
2022/10/23 07:24:47;;;;;;;12.60;11.27;;;12.30;1.00;;;;;;6378769;27;20223;-53
2022/10/23 07:27:50;;;;;;;16.83;13.43;;;12.50;1.00;;;;;;6382874;27;20268;-53
2022/10/23 07:30:58;;;;;;;17.53;13.70;;;12.50;1.00;;;;;;6385946;27;20231;-53
2022/10/23 07:34:01;;;;;;;13.83;12.53;;;12.70;1.00;;;;;;6382365;27;20408;-54
2022/10/23 07:37:04;;;;;;;13.77;11.87;;;12.70;1.00;;;;;;6384224;27;20237;-53
2022/10/23 07:40:10;;;;;;;12.93;11.73;;;12.90;1.00;;;;;;6385983;27;20413;-53
2022/10/23 07:43:12;;;;;;;12.87;11.57;;;12.90;1.00;;;;;;6378695;27;20234;-56
2022/10/23 07:46:15;;;;;;;11.67;10.67;;;13.00;1.00;;;;;;6385344;27;20231;-53
2022/10/23 07:49:18;;;;;;;16.23;10.83;;;13.10;1.00;;;;;;6381357;27;20231;-55
2022/10/23 07:52:21;;;;;;;18.77;10.90;;;13.10;1.00;;;;;;6385242;27;20745;-49
2022/10/23 07:55:25;;;;;;;13.47;11.43;;;13.10;1.00;;;;;;6385577;27;20231;-53
2022/10/23 07:58:28;;;;;;;16.87;11.10;;;13.20;1.00;;;;;;6379913;27;20233;-54
2022/10/23 08:01:33;;;;;;;12.33;11.43;;;13.20;1.00;;;;;;6384808;27;20238;-54
2022/10/23 08:04:36;;;;;;;11.27;10.37;;;13.30;1.00;;;;;;6385488;27;20237;-61
2022/10/23 08:07:39;;;;;;;12.47;9.90;;;13.40;1.00;;;;;;6374976;27;20723;-59
2022/10/23 08:10:43;;;;;;;11.17;9.97;;;13.50;1.00;;;;;;6385434;27;20337;-56
2022/10/23 08:13:46;;;;;;;11.33;10.23;;;13.60;1.00;;;;;;6379874;27;20239;-55
2022/10/23 08:16:49;;;;;;;10.57;9.63;;;13.70;1.00;;;;;;6377585;27;20609;-55
2022/10/23 08:19:52;;;;;;;10.93;9.83;;;13.90;1.00;;;;;;6384304;27;20238;-54
2022/10/23 08:22:55;;;;;;;11.87;10.87;;;14.00;1.00;;;;;;6384998;27;20238;-58
2022/10/23 08:26:01;;;;;;;10.47;9.67;;;14.00;1.00;;;;;;6388151;27;20239;-54
2022/10/23 08:29:06;;;;;;;11.40;10.30;;;14.20;1.00;;;;;;6382100;27;20472;-54
2022/10/23 08:32:09;;;;;;;11.27;10.20;;;14.30;1.00;;;;;;6384029;27;20250;-54
2022/10/23 08:35:12;;;;;;;11.23;10.23;;;14.40;1.00;;;;;;6387507;27;20245;-54
2022/10/23 08:38:15;;;;;;;11.60;10.40;;;14.50;1.00;;;;;;6387402;27;20231;-55
2022/10/23 08:41:26;;;;;;;12.43;10.13;;;14.60;1.00;;;;;;6390615;27;20245;-55
2022/10/23 08:44:33;;;;;;;10.13;9.13;;;14.60;1.00;;;;;;6387454;27;20675;-53
2022/10/23 08:47:40;;;;;;;10.60;9.53;;;14.70;1.00;;;;;;6385363;27;20230;-54
2022/10/23 08:50:49;;;;;;;10.80;9.47;;;14.80;1.00;;;;;;6389625;27;20230;-54
2022/10/23 08:53:58;;;;;;;9.93;8.83;;;14.90;1.00;;;;;;6381798;27;20239;-54
2022/10/23 08:57:09;;;;;;;9.57;8.23;;;15.00;1.00;;;;;;6389517;27;20243;-58
2022/10/23 09:00:14;;;;;;;9.53;8.67;;;15.10;1.00;;;;;;6389456;27;20230;-54
2022/10/23 09:03:18;;;;;;;7.33;6.77;;;15.20;1.00;;;;;;6384461;27;20235;-56
2022/10/23 09:06:31;;;;;;;6.97;6.60;;;15.20;1.00;;;;;;6389935;27;20249;-54
2022/10/23 09:09:51;;;;;;;8.90;8.20;;;15.40;1.00;;;;;;6383935;27;20231;-55
2022/10/23 09:13:02;;;;;;;7.37;6.80;;;15.40;1.00;;;;;;6387637;27;20253;-54
2022/10/23 09:16:17;;;;;;;7.93;6.97;;;15.50;1.00;;;;;;6389064;27;20515;-53
2022/10/23 09:19:25;;;;;;;7.20;6.60;;;15.60;1.00;;;;;;6385006;27;20611;-55
2022/10/23 09:22:29;;;;;;;9.70;6.73;;;15.60;1.00;;;;;;6388156;27;20226;-55
2022/10/23 09:25:37;;;;;;;7.20;6.37;;;15.70;1.00;;;;;;6389082;27;20240;-56
2022/10/23 09:28:46;;;;;;;8.20;7.47;;;15.90;1.00;;;;;;6377861;27;20231;-57
2022/10/23 09:31:50;;;;;;;6.00;5.60;;;16.00;1.00;;;;;;6388410;27;20638;-54
2022/10/23 09:34:55;;;;;;;7.60;5.97;;;16.20;1.00;;;;;;6386656;27;20719;-55
2022/10/23 09:37:57;;;;;;;6.60;6.00;;;16.30;1.00;;;;;;6382362;27;20706;-54
2022/10/23 09:41:05;;;;;;;5.80;5.50;;;16.40;1.00;;;;;;6380790;27;20227;-55
2022/10/23 09:44:19;;;;;;;5.90;5.47;;;16.40;1.00;;;;;;6387125;27;20234;-55
2022/10/23 09:47:25;;;;;;;5.23;4.73;;;16.60;1.00;;;;;;6388986;27;20226;-55
2022/10/23 09:50:28;;;;;;;8.43;5.87;;;16.70;1.00;;;;;;6384298;27;20230;-59
2022/10/23 09:53:34;;;;;;;6.57;5.77;;;16.80;1.00;;;;;;6388749;27;20768;-56
2022/10/23 09:56:41;;;;;;;5.83;5.23;;;16.90;1.00;;;;;;6388835;27;20496;-55
2022/10/23 09:59:51;;;;;;;5.20;4.87;;;17.00;1.00;;;;;;6384511;27;20248;-55
2022/10/23 10:02:59;;;;;;;4.57;4.27;;;17.10;1.00;;;;;;6383883;27;20782;-55
2022/10/23 10:06:04;;;;;;;5.13;4.73;;;17.20;1.00;;;;;;6384797;27;20231;-53
2022/10/23 10:09:11;;;;;;;7.57;4.47;;;17.30;1.00;;;;;;6386736;27;20235;-54
2022/10/23 10:12:26;;;;;;;4.70;4.40;;;17.40;1.00;;;;;;6380106;27;20227;-55
2022/10/23 10:15:37;;;;;;;5.17;4.70;;;17.60;1.00;;;;;;6385787;27;20424;-54
2022/10/23 10:18:46;;;;;;;8.03;4.50;;;17.70;1.00;;;;;;6386067;27;20227;-56
2022/10/23 10:21:57;;;;;;;5.33;3.80;;;17.80;1.00;;;;;;6384784;27;20242;-61
2022/10/23 10:25:07;;;;;;;4.57;3.70;;;18.00;1.00;;;;;;6383213;27;20290;-55
2022/10/23 10:28:27;;;;;;;4.33;4.03;;;18.10;1.00;;;;;;6380006;27;20235;-55
2022/10/23 10:31:43;;;;;;;5.70;5.03;;;18.10;1.00;;;;;;6383135;27;20234;-55
2022/10/23 10:35:00;;;;;;;7.07;4.10;;;18.20;1.00;;;;;;6386654;27;20239;-54
2022/10/23 10:38:28;;;;;;;4.13;3.83;;;18.20;1.00;;;;;;6383435;27;20257;-55
2022/10/23 10:41:45;;;;;;;4.70;4.13;;;18.30;1.00;;;;;;6371573;27;20728;-56
2022/10/23 10:45:00;;;;;;;6.00;4.60;;;18.50;1.00;;;;;;6385831;27;20230;-56
2022/10/23 10:48:32;;;;;;;5.07;4.60;;;18.40;1.00;;;;;;6385477;27;20227;-55
2022/10/23 10:51:43;;;;;;;5.10;4.60;;;18.60;1.00;;;;;;6380695;27;20722;-55
2022/10/23 10:54:56;;;;;;;4.93;4.53;;;18.50;1.00;;;;;;6383439;27;20234;-55
2022/10/23 10:58:03;;;;;;;5.50;5.10;;;18.50;1.00;;;;;;6386178;27;20231;-56
2022/10/23 11:01:14;;;;;;;6.57;6.00;;;18.70;1.00;;;;;;6385642;27;20234;-54
2022/10/23 11:04:30;;;;;;;7.40;5.37;;;18.70;1.00;;;;;;6376825;27;20381;-58
2022/10/23 11:07:39;;;;;;;6.63;6.00;;;18.80;1.00;;;;;;6381671;27;20460;-56
2022/10/23 11:10:45;;;;;;;5.80;5.30;;;18.90;1.00;;;;;;6357619;27;20230;-56
2022/10/23 11:13:52;;;;;;;8.70;6.07;;;18.90;1.00;;;;;;6384984;27;20235;-54
2022/10/23 11:16:59;;;;;;;8.27;7.57;;;18.90;1.00;;;;;;6386674;27;20245;-55
2022/10/23 11:20:09;;;;;;;7.33;6.83;;;18.90;1.00;;;;;;6382303;27;20224;-56
2022/10/23 11:23:32;;;;;;;7.77;6.07;;;18.90;1.00;;;;;;6377694;27;21142;-56
2022/10/23 11:26:46;;;;;;;8.53;6.00;;;19.00;1.00;;;;;;6386368;27;20425;-57
2022/10/23 11:30:15;;;;;;;7.07;6.47;;;19.20;1.00;;;;;;6382297;27;20246;-55
2022/10/23 11:34:00;;;;;;;5.77;5.27;;;19.20;1.00;;;;;;6381810;27;22802;-56
2022/10/23 11:37:05;;;;;;;6.27;5.60;;;19.30;1.00;;;;;;6381805;27;20218;-54
2022/10/23 11:40:22;;;;;;;5.47;5.17;;;19.40;1.00;;;;;;6386458;27;20226;-55
2022/10/23 11:43:30;;;;;;;6.53;4.73;;;19.60;1.00;;;;;;6375406;27;20230;-57
2022/10/23 11:46:35;;;;;;;5.27;4.77;;;19.70;1.00;;;;;;6385688;27;20586;-56
2022/10/23 11:49:38;;;;;;;4.90;4.67;;;19.90;1.00;;;;;;6386236;27;20717;-56
2022/10/23 11:52:56;;;;;;;7.00;4.87;;;19.80;1.00;;;;;;6384014;27;20231;-55
2022/10/23 11:56:25;;;;;;;4.90;4.60;;;19.90;1.00;;;;;;6356383;27;20429;-54
2022/10/23 11:59:30;;;;;;;5.63;4.40;;;19.90;1.00;;;;;;6380649;27;20231;-56
2022/10/23 12:02:36;;;;;;;4.53;4.00;;;19.90;1.00;;;;;;6383621;27;20227;-56
2022/10/23 12:05:43;;;;;;;4.30;3.90;;;19.80;1.00;;;;;;6385326;27;20293;-56
2022/10/23 12:08:51;;;;;;;7.63;4.80;;;19.80;1.00;;;;;;6384396;27;20237;-54
2022/10/23 12:12:32;;;;;;;3.90;3.70;;;19.80;1.00;;;;;;6378691;27;20569;-55
2022/10/23 12:15:35;;;;;;;7.40;6.80;;;20.00;1.00;;;;;;6366434;27;20617;-56
2022/10/23 12:18:51;;;;;;;7.30;5.10;;;20.10;1.00;;;;;;6386098;27;20226;-56
2022/10/23 12:21:57;;;;;;;3.97;3.53;;;20.20;1.00;;;;;;6385336;27;20250;-56
2022/10/23 12:25:04;;;;;;;6.20;4.37;;;20.20;1.00;;;;;;6385909;27;20242;-56
2022/10/23 12:28:18;;;;;;;6.17;4.07;;;20.20;1.00;;;;;;6356053;27;20611;-57
2022/10/23 12:31:33;;;;;;;3.33;3.23;;;20.10;1.00;;;;;;6381231;27;20231;-55
2022/10/23 12:34:45;;;;;;;5.27;3.60;;;20.00;1.00;;;;;;6383906;27;20235;-56
2022/10/23 12:38:13;;;;;;;5.47;4.20;;;20.00;1.00;;;;;;6378491;27;20711;-55
2022/10/23 12:41:24;;;;;;;4.17;3.87;;;19.90;1.00;;;;;;6377380;27;20227;-56
2022/10/23 12:44:29;;;;;;;4.43;3.70;;;19.70;1.00;;;;;;6382857;27;20257;-56
2022/10/23 12:47:39;;;;;;;8.07;4.00;;;19.70;1.00;;;;;;6384904;27;20236;-56
2022/10/23 12:50:49;;;;;;;6.37;3.57;;;19.60;1.00;;;;;;6384250;27;20599;-61
2022/10/23 12:53:52;;;;;;;4.70;3.83;;;19.50;1.00;;;;;;6382521;27;20269;-56
2022/10/23 12:56:56;;;;;;;4.07;3.77;;;19.50;1.00;;;;;;6384690;27;20371;-55
2022/10/23 13:00:03;;;;;;;6.80;3.97;;;19.40;1.00;;;;;;6372897;27;20320;-56
2022/10/23 13:03:06;;;;;;;4.97;3.23;;;19.30;1.00;;;;;;6385590;27;20643;-56
2022/10/23 13:06:11;;;;;;;5.27;3.80;;;19.20;1.00;;;;;;6383673;27;20723;-56
2022/10/23 13:09:22;;;;;;;4.27;3.87;;;19.20;1.00;;;;;;6379454;27;20242;-55
2022/10/23 13:12:29;;;;;;;5.43;4.03;;;19.10;1.00;;;;;;6387364;27;20609;-56
2022/10/23 13:15:40;;;;;;;4.57;4.10;;;19.10;1.00;;;;;;6389836;27;20750;-55
2022/10/23 13:18:43;;;;;;;3.83;3.43;;;19.10;1.00;;;;;;6387654;27;20257;-55
2022/10/23 13:21:48;;;;;;;5.03;3.63;;;19.10;1.00;;;;;;6388686;27;20238;-50
2022/10/23 13:24:52;;;;;;;4.43;3.33;;;19.00;1.00;;;;;;6389255;27;20237;-57
2022/10/23 13:28:20;;;;;;;3.97;3.50;;;19.00;1.00;;;;;;6385819;27;20726;-54
2022/10/23 13:31:26;;;;;;;7.07;3.20;;;19.00;1.00;;;;;;6381254;27;20604;-54
2022/10/23 13:34:35;;;;;;;5.53;3.53;;;18.90;1.00;;;;;;6380823;27;20584;-56
2022/10/23 13:37:38;;;;;;;4.67;4.10;;;18.90;1.00;;;;;;6388557;27;20797;-56
2022/10/23 13:40:43;;;;;;;6.70;3.57;;;19.00;1.00;;;;;;6368818;27;20550;-56
2022/10/23 13:43:48;;;;;;;4.73;3.23;;;19.00;1.00;;;;;;6385211;27;20237;-56
2022/10/23 13:46:51;;;;;;;4.50;3.13;;;19.00;1.00;;;;;;6388274;27;20234;-56
2022/10/23 13:49:54;;;;;;;4.63;3.40;;;19.00;1.00;;;;;;6387875;27;20235;-56
2022/10/23 13:52:58;;;;;;;3.43;3.10;;;18.90;1.00;;;;;;6382004;27;20226;-55
2022/10/23 13:56:01;;;;;;;4.90;3.40;;;18.80;1.00;;;;;;6387603;27;20257;-56
2022/10/23 13:59:05;;;;;;;3.50;3.13;;;18.80;1.00;;;;;;6387869;27;20240;-57
2022/10/23 14:02:18;;;;;;;4.47;2.70;;;18.80;1.00;;;;;;6384615;27;20237;-55
2022/10/23 14:05:21;;;;;;;3.90;2.93;;;18.70;1.00;;;;;;6387213;27;20225;-55
2022/10/23 14:08:24;;;;;;;6.23;3.60;;;18.60;1.00;;;;;;6385775;27;20372;-55
2022/10/23 14:11:27;;;;;;;3.87;3.17;;;18.60;1.00;;;;;;6381076;27;20468;-56
2022/10/23 14:14:31;;;;;;;3.80;3.33;;;18.50;1.00;;;;;;6379170;27;20231;-56
2022/10/23 14:17:34;;;;;;;3.17;2.87;;;18.50;1.00;;;;;;6383886;27;20227;-58
2022/10/23 14:20:38;;;;;;;3.33;3.13;;;18.50;1.00;;;;;;6386846;27;20242;-56
2022/10/23 14:23:41;;;;;;;7.03;3.47;;;18.50;1.00;;;;;;6384009;27;20473;-56
2022/10/23 14:26:44;;;;;;;5.33;3.43;;;18.40;1.00;;;;;;6385564;27;20227;-55
2022/10/23 14:29:48;;;;;;;5.00;2.90;;;18.30;1.00;;;;;;6386855;27;20226;-55
2022/10/23 14:32:52;;;;;;;3.43;3.13;;;18.30;1.00;;;;;;6386226;27;20711;-56
2022/10/23 14:35:55;;;;;;;3.33;3.13;;;18.20;1.00;;;;;;6381717;27;20238;-55
2022/10/23 14:38:59;;;;;;;5.80;3.33;;;18.10;1.00;;;;;;6387475;27;20614;-56
2022/10/23 14:42:02;;;;;;;3.60;3.30;;;18.10;1.00;;;;;;6386119;27;20737;-56
2022/10/23 14:45:07;;;;;;;4.87;3.80;;;18.00;1.00;;;;;;6381268;27;20753;-55
2022/10/23 14:48:10;;;;;;;6.03;3.23;;;18.00;1.00;;;;;;6386216;27;20231;-56
2022/10/23 14:51:18;;;;;;;6.23;3.60;;;18.00;1.00;;;;;;6384829;27;20238;-56
2022/10/23 14:54:21;;;;;;;3.33;3.00;;;18.00;1.00;;;;;;6380436;27;20230;-55
2022/10/23 14:57:24;;;;;;;3.63;3.33;;;17.90;1.00;;;;;;6386279;27;20620;-54
2022/10/23 15:00:28;;;;;;;5.90;3.73;;;17.90;1.00;;;;;;6386587;27;20230;-54
2022/10/23 15:03:40;;;;;;;4.10;3.67;;;17.90;1.00;;;;;;6378582;27;20234;-57
2022/10/23 15:06:45;;;;;;;7.33;4.23;;;17.70;1.00;;;;;;6385089;27;20233;-55
2022/10/23 15:09:49;;;;;;;7.13;4.00;;;17.70;1.00;;;;;;6384242;27;20279;-55
2022/10/23 15:12:52;;;;;;;4.20;3.80;;;17.60;1.00;;;;;;6386156;27;20235;-55
2022/10/23 15:16:04;;;;;;;4.33;3.87;;;17.60;1.00;;;;;;6385952;27;20235;-56
2022/10/23 15:19:07;;;;;;;4.07;3.77;;;17.50;1.00;;;;;;6380313;27;20241;-55
2022/10/23 15:22:15;;;;;;;4.37;3.87;;;17.50;1.00;;;;;;6379762;27;20223;-58
2022/10/23 15:25:19;;;;;;;4.40;4.20;;;17.40;1.00;;;;;;6386801;27;20233;-56
2022/10/23 15:28:26;;;;;;;4.70;4.30;;;17.40;1.00;;;;;;6381425;27;20234;-55
2022/10/23 15:31:55;;;;;;;5.03;4.53;;;17.30;1.00;;;;;;6386016;27;20242;-55
2022/10/23 15:35:00;;;;;;;5.43;4.10;;;17.20;1.00;;;;;;6383516;27;20257;-54
2022/10/23 15:38:10;;;;;;;5.80;4.47;;;17.10;1.00;;;;;;6384165;27;20265;-55
2022/10/23 15:41:21;;;;;;;5.37;4.60;;;17.10;1.00;;;;;;6376839;27;20231;-55
2022/10/23 15:44:27;;;;;;;4.50;4.07;;;17.00;1.00;;;;;;6384261;27;20753;-55
2022/10/23 15:47:31;;;;;;;7.90;4.63;;;16.90;1.00;;;;;;6384022;27;20241;-53
2022/10/23 15:50:35;;;;;;;4.63;4.30;;;16.90;1.00;;;;;;6380614;27;20226;-56
2022/10/23 15:53:40;;;;;;;8.27;4.77;;;16.80;1.00;;;;;;6385261;27;20806;-54
2022/10/23 15:56:43;;;;;;;5.80;4.07;;;16.80;1.00;;;;;;6384845;27;20227;-54
2022/10/23 15:59:56;;;;;;;4.63;4.10;;;16.60;1.00;;;;;;6379193;27;20238;-55
2022/10/23 16:03:00;;;;;;;6.60;4.70;;;16.50;1.00;;;;;;6384431;27;20234;-54
2022/10/23 16:06:04;;;;;;;6.13;4.47;;;16.40;1.00;;;;;;6385243;27;20574;-55
2022/10/23 16:09:07;;;;;;;4.57;4.13;;;16.40;1.00;;;;;;6376533;27;20242;-54
2022/10/23 16:12:10;;;;;;;4.87;4.53;;;16.30;1.00;;;;;;6385635;27;20376;-55
2022/10/23 16:15:13;;;;;;;5.27;4.57;;;16.30;1.00;;;;;;6376947;27;20231;-55
2022/10/23 16:18:18;;;;;;;5.33;4.80;;;16.30;1.00;;;;;;6380472;27;20246;-59
2022/10/23 16:21:23;;;;;;;5.23;4.77;;;16.30;1.00;;;;;;6385183;27;20313;-55